Time;durP1;ratioP1;P1;durP2;ratioP2;P2;SDS_P1;SDS_P2;PMS_P1;PMS_P2;Temp;Humidity;BMP_temperature;BMP_pressure;BME280_temperature;BME280_humidity;BME280_pressure;Samples;Min_cycle;Max_cycle;Signal;HPM_P1;HPM_P2
2022/08/08 00:00:26;;;;;;;0.50;0.40;;;15.70;99.90;;;;;;5053743;28;20506;-80
2022/08/08 00:02:59;;;;;;;0.50;0.40;;;15.70;99.90;;;;;;5054375;28;20550;-79
2022/08/08 00:05:35;;;;;;;0.50;0.40;;;15.70;99.90;;;;;;5054361;28;20523;-80
2022/08/08 00:08:10;;;;;;;0.50;0.40;;;15.60;99.90;;;;;;5054374;28;20449;-80
2022/08/08 00:10:52;;;;;;;0.50;0.40;;;15.50;99.90;;;;;;5054484;28;20448;-77
2022/08/08 00:13:24;;;;;;;0.50;0.40;;;15.50;99.90;;;;;;5053810;28;20428;-79
2022/08/08 00:15:57;;;;;;;0.50;0.40;;;15.50;99.90;;;;;;5053597;28;20527;-79
2022/08/08 00:18:29;;;;;;;0.50;0.40;;;15.40;99.90;;;;;;5054041;28;20451;-82
2022/08/08 00:20:58;;;;;;;0.50;0.50;;;15.30;99.90;;;;;;5052936;28;20447;-79
2022/08/08 00:23:31;;;;;;;0.50;0.40;;;15.40;99.90;;;;;;5053061;28;20708;-80
2022/08/08 00:26:01;;;;;;;0.50;0.40;;;15.30;99.90;;;;;;5053819;28;20480;-76
2022/08/08 00:28:34;;;;;;;0.50;0.40;;;15.30;99.90;;;;;;5053597;28;20479;-78
2022/08/08 00:31:08;;;;;;;0.50;0.40;;;15.30;99.90;;;;;;5054717;28;20490;-77
2022/08/08 00:33:45;;;;;;;0.60;0.40;;;15.30;99.90;;;;;;5054246;28;20437;-76
2022/08/08 00:36:24;;;;;;;0.50;0.40;;;15.20;99.90;;;;;;5054019;28;20515;-76
2022/08/08 00:39:01;;;;;;;0.50;0.40;;;15.20;99.90;;;;;;5054470;28;20420;-77
2022/08/08 00:41:55;;;;;;;0.50;0.37;;;15.20;99.90;;;;;;5054285;28;20453;-79
2022/08/08 00:44:37;;;;;;;0.50;0.37;;;15.10;99.90;;;;;;5053800;28;20514;-77
2022/08/08 00:47:50;;;;;;;0.50;0.40;;;15.10;99.90;;;;;;5053908;28;20494;-80
2022/08/08 00:50:54;;;;;;;0.50;0.40;;;15.10;99.90;;;;;;5052977;28;20523;-77
2022/08/08 00:53:36;;;;;;;0.50;0.40;;;15.00;99.90;;;;;;5053824;28;20543;-80
2022/08/08 00:56:51;;;;;;;0.50;0.40;;;14.90;99.90;;;;;;5053790;28;20990;-77
2022/08/08 00:59:50;;;;;;;0.50;0.40;;;14.90;99.90;;;;;;4963003;28;20446;-79
2022/08/08 01:03:04;;;;;;;0.50;0.40;;;14.80;99.90;;;;;;5052341;28;20552;-82
2022/08/08 01:06:13;;;;;;;0.50;0.40;;;14.70;99.90;;;;;;5053556;28;20449;-77
2022/08/08 01:09:08;;;;;;;0.50;0.40;;;14.70;99.90;;;;;;5052781;28;20202;-78
2022/08/08 01:12:15;;;;;;;0.50;0.40;;;14.70;99.90;;;;;;5052778;28;20579;-76
2022/08/08 01:15:20;;;;;;;0.50;0.40;;;14.70;99.90;;;;;;5053148;28;20507;-77
2022/08/08 01:18:29;;;;;;;0.50;0.40;;;14.60;99.90;;;;;;5053289;28;20530;-76
2022/08/08 01:21:18;;;;;;;0.50;0.40;;;14.60;99.90;;;;;;5052451;28;20465;-80
2022/08/08 01:24:35;;;;;;;0.50;0.40;;;14.50;99.90;;;;;;5053410;28;20422;-79
2022/08/08 01:27:40;;;;;;;0.50;0.40;;;14.50;99.90;;;;;;5052150;28;20280;-78
2022/08/08 01:30:51;;;;;;;0.50;0.40;;;14.50;99.90;;;;;;5053351;28;20511;-80
2022/08/08 01:33:57;;;;;;;0.50;0.40;;;14.40;99.90;;;;;;5051743;28;20562;-79
2022/08/08 01:37:12;;;;;;;0.50;0.40;;;14.30;99.90;;;;;;5052774;28;20437;-77
2022/08/08 01:40:03;;;;;;;0.50;0.40;;;14.30;99.90;;;;;;5052455;28;20443;-79
2022/08/08 01:42:34;;;;;;;0.50;0.40;;;14.30;99.90;;;;;;5052063;28;20217;-81
2022/08/08 01:45:12;;;;;;;0.50;0.40;;;14.30;99.90;;;;;;5052540;28;20512;-78
2022/08/08 01:47:59;;;;;;;0.50;0.40;;;14.30;99.90;;;;;;5053777;28;20640;-79
2022/08/08 01:50:42;;;;;;;0.50;0.40;;;14.20;99.90;;;;;;5053153;28;20507;-78
2022/08/08 01:53:20;;;;;;;0.50;0.40;;;14.20;99.90;;;;;;5051752;28;21398;-78
2022/08/08 01:56:01;;;;;;;0.50;0.40;;;14.10;99.90;;;;;;5052655;28;20471;-80
2022/08/08 01:58:39;;;;;;;0.50;0.40;;;14.10;99.90;;;;;;5051880;28;20438;-78
2022/08/08 02:01:15;;;;;;;0.50;0.40;;;14.10;99.90;;;;;;5052411;28;20213;-78
2022/08/08 02:03:55;;;;;;;0.50;0.40;;;14.10;99.90;;;;;;5056272;28;20512;-79
2022/08/08 02:06:38;;;;;;;0.50;0.40;;;14.00;99.90;;;;;;5055867;28;20943;-77
2022/08/08 02:09:18;;;;;;;0.50;0.40;;;14.00;99.90;;;;;;5055645;28;21014;-81
2022/08/08 02:11:46;;;;;;;0.50;0.40;;;14.00;99.90;;;;;;5056642;28;20221;-77
2022/08/08 02:14:24;;;;;;;0.50;0.40;;;14.00;99.90;;;;;;5056022;28;20197;-77
2022/08/08 02:17:02;;;;;;;0.50;0.40;;;13.90;99.90;;;;;;5056553;28;20456;-77
2022/08/08 02:19:39;;;;;;;0.50;0.40;;;13.90;99.90;;;;;;5056161;28;20421;-78
2022/08/08 02:25:02;;;;;;;0.50;0.40;;;13.80;99.90;;;;;;5055581;28;20197;-77
2022/08/08 02:27:35;;;;;;;0.50;0.40;;;13.70;99.90;;;;;;5056157;28;20195;-78
2022/08/08 02:30:06;;;;;;;0.50;0.40;;;13.70;99.90;;;;;;5055960;28;20599;-77
2022/08/08 02:33:03;;;;;;;0.50;0.40;;;13.70;99.90;;;;;;5055247;28;20772;-77
2022/08/08 02:36:06;;;;;;;0.50;0.40;;;13.60;99.90;;;;;;5048795;28;20552;-77
2022/08/08 02:38:58;;;;;;;0.50;0.40;;;13.60;99.90;;;;;;5049961;28;20279;-77
2022/08/08 02:41:42;;;;;;;0.50;0.40;;;13.50;99.90;;;;;;5054827;28;20535;-80
2022/08/08 02:44:42;;;;;;;0.50;0.40;;;13.40;99.90;;;;;;5055016;28;20202;-77
2022/08/08 02:47:38;;;;;;;0.50;0.40;;;13.40;99.90;;;;;;5055268;28;20196;-77
2022/08/08 02:50:39;;;;;;;0.50;0.40;;;13.40;99.90;;;;;;5045607;28;20545;-76
2022/08/08 02:53:27;;;;;;;0.50;0.40;;;13.40;99.90;;;;;;5055147;28;20318;-78
2022/08/08 02:56:32;;;;;;;0.60;0.50;;;13.40;99.90;;;;;;5055024;28;20270;-75
2022/08/08 02:59:34;;;;;;;0.50;0.40;;;13.30;99.90;;;;;;5055234;28;20285;-78
2022/08/08 03:02:30;;;;;;;0.50;0.40;;;13.30;99.90;;;;;;5054806;28;20217;-77
2022/08/08 03:05:24;;;;;;;0.50;0.40;;;13.30;99.90;;;;;;5052439;28;20543;-79
2022/08/08 03:08:42;;;;;;;0.50;0.40;;;13.20;99.90;;;;;;5054986;28;20266;-79
2022/08/08 03:11:45;;;;;;;0.50;0.40;;;13.20;99.90;;;;;;5054515;28;20245;-77
2022/08/08 03:14:36;;;;;;;0.50;0.40;;;13.20;99.90;;;;;;5054180;28;20592;-79
2022/08/08 03:17:08;;;;;;;0.50;0.40;;;13.20;99.90;;;;;;5054624;28;20262;-79
2022/08/08 03:20:04;;;;;;;0.50;0.40;;;13.10;99.90;;;;;;5054256;28;20179;-79
2022/08/08 03:22:31;;;;;;;0.50;0.40;;;13.10;99.90;;;;;;5053574;28;20231;-79
2022/08/08 03:25:00;;;;;;;0.50;0.40;;;13.10;99.90;;;;;;5054307;28;20672;-78
2022/08/08 03:27:33;;;;;;;0.50;0.40;;;13.10;99.90;;;;;;5054246;28;20287;-79
2022/08/08 03:30:05;;;;;;;0.50;0.40;;;13.10;99.90;;;;;;5054150;28;20281;-74
2022/08/08 03:35:18;;;;;;;0.50;0.40;;;13.00;99.90;;;;;;5054260;28;20713;-80
2022/08/08 03:37:45;;;;;;;0.50;0.40;;;13.00;99.90;;;;;;5054477;28;20194;-79
2022/08/08 03:40:16;;;;;;;0.50;0.40;;;13.00;99.90;;;;;;5053895;28;20191;-80
2022/08/08 03:42:44;;;;;;;0.50;0.40;;;13.00;99.90;;;;;;5054176;28;20207;-80
2022/08/08 03:45:16;;;;;;;0.50;0.40;;;12.90;99.90;;;;;;5055049;28;20555;-79
2022/08/08 03:47:43;;;;;;;0.50;0.40;;;13.00;99.90;;;;;;5054003;28;20194;-79
2022/08/08 03:50:18;;;;;;;0.50;0.40;;;13.00;99.90;;;;;;5054695;28;20294;-80
2022/08/08 03:52:45;;;;;;;0.50;0.40;;;12.90;99.90;;;;;;5054062;28;20301;-78
2022/08/08 03:55:15;;;;;;;0.50;0.40;;;12.90;99.90;;;;;;5053739;28;20539;-78
2022/08/08 03:57:48;;;;;;;0.50;0.40;;;12.90;99.90;;;;;;5053864;28;20595;-78
2022/08/08 04:00:17;;;;;;;0.50;0.40;;;12.90;99.90;;;;;;5052571;28;20190;-78
2022/08/08 04:02:54;;;;;;;0.50;0.40;;;12.90;99.90;;;;;;5053115;28;20246;-78
2022/08/08 04:05:21;;;;;;;0.50;0.40;;;12.90;99.90;;;;;;5052784;28;20194;-80
2022/08/08 04:07:48;;;;;;;0.50;0.40;;;12.90;99.90;;;;;;5053270;28;20194;-78
2022/08/08 04:10:16;;;;;;;0.50;0.40;;;12.90;99.90;;;;;;5053089;28;20273;-78
2022/08/08 04:12:43;;;;;;;0.50;0.40;;;12.90;99.90;;;;;;5052702;28;20218;-77
2022/08/08 04:15:11;;;;;;;0.50;0.40;;;12.90;99.90;;;;;;5053369;28;20285;-77
2022/08/08 04:17:37;;;;;;;0.50;0.40;;;12.90;99.90;;;;;;5053379;28;20313;-77
2022/08/08 04:20:05;;;;;;;0.50;0.40;;;13.00;99.90;;;;;;5052884;28;20308;-77
2022/08/08 04:22:32;;;;;;;0.55;0.52;;;13.00;99.90;;;;;;5052336;28;20220;-79
2022/08/08 04:24:59;;;;;;;0.50;0.40;;;13.10;99.90;;;;;;5052076;28;20197;-77
2022/08/08 04:27:27;;;;;;;0.50;0.40;;;13.10;99.90;;;;;;5053073;28;20198;-77
2022/08/08 04:29:54;;;;;;;0.50;0.40;;;13.10;99.90;;;;;;5053117;28;20204;-77
2022/08/08 04:32:21;;;;;;;0.50;0.40;;;13.20;99.90;;;;;;5052442;28;20301;-76
2022/08/08 04:34:48;;;;;;;0.50;0.40;;;13.20;99.90;;;;;;5052845;28;20236;-77
2022/08/08 04:37:15;;;;;;;0.50;0.40;;;13.30;99.90;;;;;;5052798;28;20276;-79
2022/08/08 04:39:42;;;;;;;0.50;0.40;;;13.30;99.90;;;;;;5053024;28;20218;-79
2022/08/08 04:42:08;;;;;;;0.50;0.40;;;13.40;99.90;;;;;;5052649;28;20297;-77
2022/08/08 04:44:37;;;;;;;0.50;0.40;;;13.40;99.90;;;;;;5052674;28;20292;-79
2022/08/08 04:47:04;;;;;;;0.50;0.40;;;13.40;99.90;;;;;;5052527;28;20191;-78
2022/08/08 04:49:31;;;;;;;0.50;0.40;;;13.50;99.90;;;;;;5052412;28;20199;-78
2022/08/08 04:51:59;;;;;;;0.50;0.40;;;13.50;99.90;;;;;;5052118;28;20540;-79
2022/08/08 04:54:26;;;;;;;0.50;0.40;;;13.60;99.90;;;;;;5052903;28;20300;-78
2022/08/08 04:56:53;;;;;;;0.50;0.40;;;13.70;99.90;;;;;;5052756;28;20217;-77
2022/08/08 04:59:20;;;;;;;0.50;0.40;;;13.80;99.90;;;;;;5052884;28;20282;-77
2022/08/08 05:01:48;;;;;;;0.50;0.40;;;13.80;99.90;;;;;;5052326;28;20458;-79
2022/08/08 05:04:15;;;;;;;0.50;0.40;;;13.80;99.90;;;;;;5078364;28;20442;-76
2022/08/08 05:06:42;;;;;;;0.50;0.40;;;13.90;99.90;;;;;;5062407;28;20430;-78
2022/08/08 05:09:09;;;;;;;0.50;0.40;;;13.90;99.90;;;;;;5071450;28;20196;-79
2022/08/08 05:11:37;;;;;;;0.50;0.40;;;14.00;99.90;;;;;;5071210;28;20544;-78
2022/08/08 05:14:03;;;;;;;0.50;0.40;;;14.10;99.90;;;;;;5071804;28;20475;-78
2022/08/08 05:16:31;;;;;;;0.50;0.40;;;14.10;99.90;;;;;;5071085;28;20442;-78
2022/08/08 05:19:00;;;;;;;0.50;0.40;;;14.20;99.90;;;;;;5072249;28;20194;-77
2022/08/08 05:21:26;;;;;;;0.50;0.40;;;14.40;99.90;;;;;;5069616;28;21049;-77
2022/08/08 05:23:53;;;;;;;0.50;0.40;;;14.50;99.90;;;;;;5071445;28;20519;-73
2022/08/08 05:26:21;;;;;;;0.90;0.87;;;14.60;99.90;;;;;;5071552;28;20203;-77
2022/08/08 05:28:48;;;;;;;0.50;0.40;;;14.80;99.90;;;;;;5071386;28;20440;-77
2022/08/08 05:31:15;;;;;;;0.50;0.40;;;14.90;99.90;;;;;;5070784;28;20538;-75
2022/08/08 05:33:42;;;;;;;0.50;0.40;;;15.10;99.90;;;;;;5071402;28;20480;-77
2022/08/08 05:36:11;;;;;;;0.50;0.40;;;15.20;99.90;;;;;;5071764;28;21017;-76
2022/08/08 05:38:46;;;;;;;0.87;0.87;;;15.30;99.90;;;;;;5071565;28;20435;-77
2022/08/08 05:41:16;;;;;;;0.50;0.40;;;15.40;99.90;;;;;;5071349;28;20498;-76
2022/08/08 05:43:46;;;;;;;0.50;0.40;;;15.50;99.90;;;;;;5071013;28;20440;-77
2022/08/08 05:46:14;;;;;;;0.50;0.50;;;15.70;99.90;;;;;;5071170;28;20448;-77
2022/08/08 05:48:41;;;;;;;0.50;0.40;;;15.70;99.90;;;;;;5071433;28;20443;-77
2022/08/08 05:51:09;;;;;;;0.50;0.40;;;15.80;99.90;;;;;;5070823;28;20555;-77
2022/08/08 05:53:36;;;;;;;0.50;0.40;;;15.90;99.90;;;;;;5070727;28;20837;-77
2022/08/08 05:56:05;;;;;;;0.60;0.50;;;16.10;99.90;;;;;;5071305;28;20802;-77
2022/08/08 05:58:33;;;;;;;0.50;0.40;;;16.20;99.90;;;;;;5070654;28;20882;-77
2022/08/08 06:01:02;;;;;;;1.13;1.13;;;16.30;99.90;;;;;;5070987;28;20496;-77
2022/08/08 06:03:30;;;;;;;0.50;0.40;;;16.40;99.90;;;;;;5070856;28;20522;-78
2022/08/08 06:05:58;;;;;;;0.50;0.40;;;16.60;99.90;;;;;;5071230;28;20436;-76
2022/08/08 06:08:30;;;;;;;0.50;0.50;;;17.70;99.90;;;;;;5070294;28;20531;-77
2022/08/08 06:10:58;;;;;;;0.50;0.30;;;19.40;99.90;;;;;;5070980;28;20456;-76
2022/08/08 06:13:27;;;;;;;0.50;0.30;;;20.80;99.90;;;;;;5071193;28;20912;-78
2022/08/08 06:15:55;;;;;;;0.50;0.40;;;22.30;99.90;;;;;;5071146;28;20449;-78
2022/08/08 06:18:23;;;;;;;0.50;0.30;;;23.30;99.90;;;;;;5071532;28;20523;-78
2022/08/08 06:20:53;;;;;;;0.50;0.33;;;24.30;99.90;;;;;;5072286;28;20444;-77
2022/08/08 06:23:20;;;;;;;0.50;0.30;;;25.40;99.90;;;;;;5072479;28;20460;-78
2022/08/08 06:25:59;;;;;;;0.50;0.40;;;25.50;94.90;;;;;;5072942;28;20447;-77
2022/08/08 06:28:30;;;;;;;0.50;0.30;;;26.30;94.40;;;;;;5074575;28;20455;-78
2022/08/08 06:31:01;;;;;;;0.50;0.30;;;27.30;91.30;;;;;;5071839;28;20520;-77
2022/08/08 06:33:35;;;;;;;0.50;0.30;;;28.10;83.20;;;;;;5073042;28;20463;-78
2022/08/08 06:36:04;;;;;;;0.50;0.30;;;28.70;77.30;;;;;;5074602;28;20462;-78
2022/08/08 06:38:37;;;;;;;0.50;0.30;;;28.90;74.80;;;;;;5072089;28;20451;-78
2022/08/08 06:41:11;;;;;;;0.97;0.97;;;29.70;73.50;;;;;;5070637;28;20531;-76
2022/08/08 06:43:43;;;;;;;0.50;0.30;;;30.60;69.00;;;;;;5070736;28;20416;-75
2022/08/08 06:46:10;;;;;;;1.33;1.17;;;31.40;66.50;;;;;;5070856;28;20471;-75
2022/08/08 06:48:37;;;;;;;0.50;0.30;;;32.10;63.60;;;;;;5071409;28;20440;-75
2022/08/08 06:51:05;;;;;;;0.50;0.30;;;32.00;62.70;;;;;;5073909;28;20479;-75
2022/08/08 06:53:32;;;;;;;1.90;1.50;;;32.90;60.40;;;;;;5073358;28;20563;-76
2022/08/08 06:55:59;;;;;;;0.50;0.30;;;32.90;58.10;;;;;;5074351;28;20424;-75
2022/08/08 06:58:27;;;;;;;0.50;0.30;;;33.20;58.50;;;;;;5074007;28;20444;-75
2022/08/08 07:00:56;;;;;;;0.50;0.30;;;33.80;56.10;;;;;;5073741;28;20451;-76
2022/08/08 07:03:36;;;;;;;1.33;1.23;;;33.80;56.10;;;;;;5073875;28;20436;-76
2022/08/08 07:06:05;;;;;;;0.50;0.30;;;34.20;56.10;;;;;;5074116;28;20430;-76
2022/08/08 07:08:38;;;;;;;0.50;0.30;;;34.30;54.90;;;;;;5072961;28;20460;-77
2022/08/08 07:11:07;;;;;;;0.50;0.30;;;35.10;55.00;;;;;;5073550;28;20527;-76
2022/08/08 07:13:40;;;;;;;0.50;0.30;;;35.40;53.80;;;;;;5073111;28;20511;-76
2022/08/08 07:16:14;;;;;;;0.50;0.30;;;35.80;52.60;;;;;;5073881;28;20447;-76
2022/08/08 07:18:55;;;;;;;0.50;0.30;;;35.20;51.30;;;;;;5074059;28;20502;-77
2022/08/08 07:21:28;;;;;;;0.50;0.50;;;35.90;51.70;;;;;;5072448;28;20831;-76
2022/08/08 07:24:00;;;;;;;0.40;0.30;;;35.90;51.90;;;;;;5073721;28;20826;-75
2022/08/08 07:26:33;;;;;;;0.43;0.30;;;35.80;51.20;;;;;;5073523;28;20454;-76
2022/08/08 07:29:03;;;;;;;1.17;1.17;;;36.40;50.10;;;;;;5073806;28;20421;-75
2022/08/08 07:31:31;;;;;;;0.50;0.30;;;36.70;50.00;;;;;;5072949;28;20491;-76
2022/08/08 07:33:58;;;;;;;1.37;1.37;;;37.20;48.50;;;;;;5072725;28;21041;-77
2022/08/08 07:36:27;;;;;;;0.47;0.40;;;34.90;49.30;;;;;;5073331;28;20494;-77
2022/08/08 07:38:55;;;;;;;0.47;0.40;;;34.50;51.60;;;;;;5073162;28;20861;-77
2022/08/08 07:41:25;;;;;;;0.50;0.30;;;35.50;51.00;;;;;;5072493;28;20478;-76
2022/08/08 07:43:54;;;;;;;0.50;0.30;;;36.20;50.50;;;;;;5073167;28;20570;-77
2022/08/08 07:46:22;;;;;;;0.50;0.40;;;37.20;49.20;;;;;;5073959;28;20934;-77
2022/08/08 07:48:49;;;;;;;0.40;0.30;;;38.20;47.80;;;;;;5073989;28;20519;-76
2022/08/08 07:51:17;;;;;;;0.40;0.40;;;38.20;47.00;;;;;;5073583;28;20463;-75
2022/08/08 07:53:49;;;;;;;0.40;0.30;;;39.00;46.40;;;;;;5073012;28;20459;-77
2022/08/08 07:56:17;;;;;;;0.40;0.30;;;38.80;45.30;;;;;;5072708;28;20439;-77
2022/08/08 07:58:45;;;;;;;0.77;0.77;;;38.20;47.00;;;;;;5072586;28;20436;-77
2022/08/08 08:01:14;;;;;;;0.77;0.50;;;36.80;47.30;;;;;;5072523;28;20460;-76
2022/08/08 08:03:49;;;;;;;0.40;0.30;;;37.60;46.40;;;;;;5071911;28;20472;-76
2022/08/08 08:06:19;;;;;;;6.43;0.93;;;37.80;46.80;;;;;;5072670;28;21091;-77
2022/08/08 08:08:50;;;;;;;0.50;0.30;;;36.50;46.10;;;;;;5072313;28;20440;-76
2022/08/08 08:11:22;;;;;;;0.50;0.40;;;37.60;47.20;;;;;;5072667;28;20823;-76
2022/08/08 08:13:54;;;;;;;0.43;0.33;;;38.50;47.10;;;;;;5072132;28;20450;-77
2022/08/08 08:16:24;;;;;;;0.83;0.83;;;39.10;44.60;;;;;;5072385;28;20436;-77
2022/08/08 08:18:56;;;;;;;0.40;0.30;;;38.60;44.50;;;;;;5072532;28;20549;-76
2022/08/08 08:21:26;;;;;;;0.50;0.40;;;39.40;44.80;;;;;;5072078;28;20539;-76
2022/08/08 08:23:53;;;;;;;0.40;0.30;;;39.30;44.00;;;;;;5071953;28;20468;-76
2022/08/08 08:26:20;;;;;;;0.40;0.30;;;39.50;44.00;;;;;;5072657;28;20528;-76
2022/08/08 08:28:47;;;;;;;0.40;0.30;;;38.90;44.30;;;;;;5072099;28;20539;-77
2022/08/08 08:31:14;;;;;;;0.40;0.30;;;38.60;44.20;;;;;;5071913;28;20547;-77
2022/08/08 08:33:41;;;;;;;0.40;0.30;;;38.80;44.40;;;;;;5071621;28;20432;-77
2022/08/08 08:36:10;;;;;;;0.40;0.30;;;39.30;44.50;;;;;;5071965;28;20547;-78
2022/08/08 08:38:37;;;;;;;0.40;0.30;;;39.60;44.30;;;;;;5071884;28;20527;-77
2022/08/08 08:41:05;;;;;;;0.40;0.30;;;39.40;45.80;;;;;;5072142;28;20838;-74
2022/08/08 08:43:34;;;;;;;0.40;0.30;;;39.70;43.70;;;;;;5071210;28;20488;-77
2022/08/08 08:46:01;;;;;;;0.40;0.30;;;38.90;44.60;;;;;;5071929;28;20441;-76
2022/08/08 08:48:29;;;;;;;0.40;0.30;;;38.70;44.10;;;;;;5071710;28;20504;-77
2022/08/08 08:50:58;;;;;;;0.50;0.47;;;39.10;43.90;;;;;;5072511;28;20476;-77
2022/08/08 08:53:26;;;;;;;0.40;0.30;;;39.20;42.80;;;;;;5072717;28;20440;-77
2022/08/08 08:55:55;;;;;;;0.50;0.40;;;40.20;43.00;;;;;;5072724;28;20436;-77
2022/08/08 08:58:30;;;;;;;0.40;0.30;;;40.60;42.40;;;;;;5071708;28;20436;-77
2022/08/08 09:01:00;;;;;;;0.40;0.40;;;41.10;42.00;;;;;;5071696;28;20427;-77
2022/08/08 09:03:28;;;;;;;0.40;0.30;;;41.10;40.10;;;;;;5071486;28;20524;-77
2022/08/08 09:05:56;;;;;;;60.10;19.20;;;40.50;39.90;;;;;;5071549;28;20442;-76
2022/08/08 09:08:27;;;;;;;0.40;0.30;;;39.40;41.40;;;;;;5071142;28;20433;-77
2022/08/08 09:10:55;;;;;;;0.40;0.30;;;39.20;42.40;;;;;;5071261;28;20467;-77
2022/08/08 09:13:22;;;;;;;0.40;0.30;;;39.30;41.30;;;;;;5071321;28;20869;-77
2022/08/08 09:15:49;;;;;;;0.40;0.30;;;39.50;42.60;;;;;;5071099;28;20531;-76
2022/08/08 09:18:17;;;;;;;0.40;0.30;;;38.90;41.00;;;;;;5071159;28;21222;-77
2022/08/08 09:20:45;;;;;;;0.40;0.30;;;39.70;41.80;;;;;;5071268;28;20444;-77
2022/08/08 09:23:14;;;;;;;0.50;0.40;;;40.10;40.00;;;;;;5071758;28;20471;-77
2022/08/08 09:25:47;;;;;;;0.40;0.30;;;41.00;40.10;;;;;;5071707;28;20586;-77
2022/08/08 09:28:15;;;;;;;0.40;0.30;;;41.30;39.50;;;;;;5071920;28;20463;-77
2022/08/08 09:30:43;;;;;;;0.40;0.30;;;42.10;39.80;;;;;;5071104;28;20436;-76
2022/08/08 09:33:12;;;;;;;0.90;0.90;;;42.60;39.60;;;;;;5071456;28;20889;-77
2022/08/08 09:35:43;;;;;;;0.50;0.40;;;41.40;38.20;;;;;;5071484;28;20511;-77
2022/08/08 09:38:15;;;;;;;1.10;1.00;;;40.70;39.20;;;;;;5071062;28;20429;-77
2022/08/08 09:40:49;;;;;;;1.50;0.70;;;38.40;41.40;;;;;;5071130;28;20427;-77
2022/08/08 09:43:19;;;;;;;0.40;0.30;;;39.00;41.50;;;;;;5071192;28;20431;-77
2022/08/08 09:45:52;;;;;;;0.40;0.30;;;40.10;41.90;;;;;;5071398;28;20476;-77
2022/08/08 09:48:19;;;;;;;0.70;0.70;;;40.90;40.50;;;;;;5071468;28;20431;-77
2022/08/08 09:50:46;;;;;;;0.77;0.77;;;40.80;40.10;;;;;;5071400;28;20447;-77
2022/08/08 09:53:18;;;;;;;0.40;0.30;;;40.60;39.60;;;;;;5071592;28;20474;-76
2022/08/08 09:55:47;;;;;;;0.40;0.30;;;39.50;40.60;;;;;;5070820;28;20424;-78
2022/08/08 09:58:18;;;;;;;1.53;1.43;;;39.50;41.40;;;;;;5070803;28;20534;-77
2022/08/08 10:00:48;;;;;;;1.00;1.00;;;38.10;42.10;;;;;;5071216;28;20448;-77
2022/08/08 10:03:16;;;;;;;0.40;0.30;;;39.50;41.50;;;;;;5070568;28;20547;-78
2022/08/08 10:05:44;;;;;;;0.40;0.30;;;39.40;40.60;;;;;;5071445;28;20559;-77
2022/08/08 10:08:11;;;;;;;0.40;0.30;;;40.30;40.60;;;;;;5071445;28;20440;-75
2022/08/08 10:10:40;;;;;;;0.40;0.30;;;40.70;39.80;;;;;;5071091;28;20448;-76
2022/08/08 10:13:19;;;;;;;0.40;0.30;;;40.90;40.10;;;;;;5071001;28;20535;-77
2022/08/08 10:15:47;;;;;;;0.40;0.30;;;41.10;38.60;;;;;;5071013;28;20827;-76
2022/08/08 10:18:23;;;;;;;0.40;0.30;;;41.20;38.50;;;;;;5071037;28;20972;-77
2022/08/08 10:20:53;;;;;;;0.40;0.30;;;41.20;38.40;;;;;;5070411;28;21010;-76
2022/08/08 10:23:36;;;;;;;0.50;0.40;;;41.00;38.30;;;;;;5070952;28;20425;-77
2022/08/08 10:26:04;;;;;;;0.40;0.40;;;41.00;38.60;;;;;;5074466;28;20503;-76
2022/08/08 10:28:32;;;;;;;0.40;0.30;;;41.30;37.80;;;;;;5074630;28;20440;-77
2022/08/08 10:32:30;;;;;;;0.40;0.30;;;41.10;39.40;;;;;;5074604;28;20467;-77
2022/08/08 10:33:49;;;;;;;0.40;0.30;;;41.60;39.30;;;;;;5073804;28;20428;-78
2022/08/08 10:36:18;;;;;;;0.40;0.40;;;40.80;38.10;;;;;;5074179;28;20961;-77
2022/08/08 10:38:45;;;;;;;0.70;0.70;;;40.90;39.40;;;;;;5074311;28;20437;-77
2022/08/08 10:41:17;;;;;;;0.50;0.40;;;41.00;39.00;;;;;;5074335;28;20792;-77
2022/08/08 10:43:51;;;;;;;0.40;0.30;;;39.10;38.20;;;;;;5073807;28;20805;-77
2022/08/08 10:46:25;;;;;;;0.40;0.40;;;39.10;40.10;;;;;;5075127;28;20462;-78
2022/08/08 10:48:53;;;;;;;0.40;0.30;;;39.30;40.40;;;;;;5074726;28;20466;-78
2022/08/08 10:51:21;;;;;;;0.40;0.30;;;38.60;40.00;;;;;;5073702;28;20456;-76
2022/08/08 10:53:49;;;;;;;0.40;0.30;;;38.90;41.20;;;;;;5073916;28;20991;-78
2022/08/08 10:56:17;;;;;;;0.40;0.40;;;39.10;40.30;;;;;;5074236;28;20439;-77
2022/08/08 10:58:45;;;;;;;0.40;0.30;;;39.50;40.20;;;;;;5074374;28;20527;-77
2022/08/08 11:01:13;;;;;;;0.80;0.53;;;39.20;40.00;;;;;;5074068;28;20456;-77
2022/08/08 11:03:42;;;;;;;0.40;0.40;;;38.90;40.80;;;;;;5075168;28;20535;-78
2022/08/08 11:06:09;;;;;;;0.40;0.30;;;39.90;41.10;;;;;;5074470;28;20490;-79
2022/08/08 11:08:36;;;;;;;0.40;0.30;;;40.50;38.50;;;;;;5074840;28;20526;-78
2022/08/08 11:11:05;;;;;;;0.40;0.30;;;41.00;39.00;;;;;;5074653;28;20440;-75
2022/08/08 11:13:39;;;;;;;0.40;0.30;;;41.50;38.00;;;;;;5074333;28;20499;-78
2022/08/08 11:16:09;;;;;;;0.40;0.30;;;41.40;39.00;;;;;;5075346;28;20427;-78
2022/08/08 11:18:37;;;;;;;0.40;0.30;;;41.80;37.30;;;;;;5094929;22;20502;-77
2022/08/08 11:21:06;;;;;;;0.40;0.30;;;41.80;37.20;;;;;;5070922;28;20446;-78
2022/08/08 11:23:34;;;;;;;0.40;0.30;;;42.10;37.80;;;;;;5066173;28;20531;-78
2022/08/08 11:26:05;;;;;;;0.40;0.30;;;41.60;38.40;;;;;;5073268;28;20916;-77
2022/08/08 11:28:35;;;;;;;0.40;0.30;;;40.90;38.60;;;;;;5073390;28;20539;-78
2022/08/08 11:31:04;;;;;;;0.40;0.30;;;40.40;38.80;;;;;;5073316;28;20436;-77
2022/08/08 11:33:35;;;;;;;0.40;0.30;;;41.00;39.00;;;;;;5072703;28;20436;-78
2022/08/08 11:36:02;;;;;;;0.40;0.30;;;41.20;38.80;;;;;;5072809;28;20507;-78
2022/08/08 11:38:30;;;;;;;0.40;0.30;;;41.50;38.40;;;;;;5073319;28;20463;-78
2022/08/08 11:40:57;;;;;;;0.40;0.30;;;41.20;38.40;;;;;;5072477;28;20440;-77
2022/08/08 11:43:24;;;;;;;0.40;0.30;;;41.00;39.30;;;;;;5073140;28;20445;-78
2022/08/08 11:45:52;;;;;;;0.40;0.30;;;41.00;38.50;;;;;;5072656;28;20471;-76
2022/08/08 11:48:20;;;;;;;0.40;0.30;;;41.40;38.20;;;;;;5072785;28;20848;-78
2022/08/08 11:50:50;;;;;;;0.40;0.30;;;41.40;38.30;;;;;;5072808;28;20448;-78
2022/08/08 11:53:19;;;;;;;0.40;0.30;;;41.40;39.00;;;;;;5072178;28;20444;-76
2022/08/08 11:55:50;;;;;;;0.40;0.30;;;41.50;37.40;;;;;;5072502;28;20922;-78
2022/08/08 11:58:17;;;;;;;0.40;0.30;;;40.30;36.90;;;;;;5072767;28;20463;-77
2022/08/08 12:00:45;;;;;;;0.40;0.30;;;40.30;38.70;;;;;;5072563;28;20956;-78
2022/08/08 12:03:20;;;;;;;3.23;1.07;;;40.00;39.20;;;;;;5072719;28;20435;-78
2022/08/08 12:05:50;;;;;;;0.53;0.50;;;39.80;39.30;;;;;;5072358;28;20467;-76
2022/08/08 12:08:17;;;;;;;0.40;0.30;;;39.10;40.00;;;;;;5072280;28;20460;-78
2022/08/08 12:10:48;;;;;;;0.40;0.30;;;39.00;40.10;;;;;;5072606;28;20444;-78
2022/08/08 12:13:21;;;;;;;0.40;0.30;;;39.20;40.10;;;;;;5072511;28;20463;-77
2022/08/08 12:15:48;;;;;;;0.40;0.30;;;39.60;40.70;;;;;;5076524;28;20423;-79
2022/08/08 12:18:17;;;;;;;0.50;0.47;;;38.90;40.30;;;;;;5075228;28;21091;-82
2022/08/08 12:20:44;;;;;;;0.70;0.70;;;39.00;41.20;;;;;;5076236;28;21006;-80
2022/08/08 12:23:13;;;;;;;0.40;0.30;;;39.10;40.70;;;;;;5072761;28;20527;-78
2022/08/08 12:25:41;;;;;;;0.40;0.30;;;39.60;41.00;;;;;;5071964;28;20568;-77
2022/08/08 12:28:11;;;;;;;0.40;0.30;;;39.50;40.00;;;;;;5072307;28;20456;-78
2022/08/08 12:30:39;;;;;;;0.40;0.30;;;39.90;40.50;;;;;;5072363;28;20775;-77
2022/08/08 12:33:16;;;;;;;1.10;0.90;;;38.90;39.90;;;;;;5070632;28;20440;-77
2022/08/08 12:35:43;;;;;;;0.40;0.30;;;39.20;39.90;;;;;;5072267;28;20421;-78
2022/08/08 12:38:12;;;;;;;0.40;0.30;;;39.00;40.10;;;;;;5072122;28;20459;-77
2022/08/08 12:40:44;;;;;;;1.33;0.77;;;39.20;40.80;;;;;;5072291;28;20440;-78
2022/08/08 12:43:12;;;;;;;0.40;0.30;;;39.00;40.80;;;;;;5071495;28;20472;-76
2022/08/08 12:45:42;;;;;;;0.40;0.30;;;39.30;41.70;;;;;;5070631;28;20873;-78
2022/08/08 12:48:18;;;;;;;0.40;0.30;;;39.90;41.60;;;;;;5071601;28;20858;-77
2022/08/08 12:50:48;;;;;;;0.90;0.50;;;40.40;40.40;;;;;;5071815;28;20443;-78
2022/08/08 12:53:24;;;;;;;0.80;0.53;;;40.20;40.20;;;;;;5071526;28;20527;-77
2022/08/08 12:55:57;;;;;;;0.40;0.30;;;40.10;39.70;;;;;;5071327;28;20512;-77
2022/08/08 12:58:25;;;;;;;1.03;0.93;;;39.20;39.80;;;;;;5071284;28;20463;-77
2022/08/08 13:00:52;;;;;;;0.63;0.63;;;38.50;41.00;;;;;;5074543;28;20433;-78
2022/08/08 13:03:29;;;;;;;0.40;0.30;;;38.50;41.00;;;;;;5071413;28;20871;-77
2022/08/08 13:06:08;;;;;;;0.40;0.30;;;39.00;41.10;;;;;;5071976;28;20567;-77
2022/08/08 13:08:43;;;;;;;0.40;0.33;;;37.70;41.00;;;;;;5071722;28;20868;-77
2022/08/08 13:11:18;;;;;;;0.40;0.37;;;38.20;41.40;;;;;;5071389;28;20440;-76
2022/08/08 13:13:51;;;;;;;0.40;0.30;;;38.20;41.50;;;;;;5071117;28;20522;-77
2022/08/08 13:16:19;;;;;;;0.40;0.30;;;38.50;40.80;;;;;;5072483;28;20518;-77
2022/08/08 13:18:46;;;;;;;0.90;0.50;;;38.90;41.40;;;;;;5070979;28;20472;-77
2022/08/08 13:21:14;;;;;;;0.40;0.30;;;38.40;41.90;;;;;;5071050;28;20447;-77
2022/08/08 13:23:42;;;;;;;0.40;0.30;;;38.50;41.50;;;;;;5070922;28;20933;-76
2022/08/08 13:26:10;;;;;;;0.40;0.30;;;39.10;41.50;;;;;;5071280;28;21066;-78